sensor_id;sensor_type;location;lat;lon;timestamp;temperature;humidity
1413;DHT22;701;52.526;13.408;2023-02-11T00:01:52;4.90;24.70
1413;DHT22;701;52.526;13.408;2023-02-11T00:04:18;4.90;24.70
1413;DHT22;701;52.526;13.408;2023-02-11T00:06:43;4.90;24.70
1413;DHT22;701;52.526;13.408;2023-02-11T00:09:09;4.90;24.70
1413;DHT22;701;52.526;13.408;2023-02-11T00:11:35;4.90;24.70
1413;DHT22;701;52.526;13.408;2023-02-11T00:14:04;4.90;24.70
1413;DHT22;701;52.526;13.408;2023-02-11T00:16:32;5.00;24.70
1413;DHT22;701;52.526;13.408;2023-02-11T00:19:02;5.00;24.70
1413;DHT22;701;52.526;13.408;2023-02-11T00:21:31;5.00;24.60
1413;DHT22;701;52.526;13.408;2023-02-11T00:23:57;5.00;24.60
1413;DHT22;701;52.526;13.408;2023-02-11T00:26:27;5.00;24.60
1413;DHT22;701;52.526;13.408;2023-02-11T00:28:53;5.00;24.70
1413;DHT22;701;52.526;13.408;2023-02-11T00:31:21;5.00;24.70
1413;DHT22;701;52.526;13.408;2023-02-11T00:33:47;5.00;24.70
1413;DHT22;701;52.526;13.408;2023-02-11T00:36:16;5.00;24.80
1413;DHT22;701;52.526;13.408;2023-02-11T00:38:46;5.00;24.80
1413;DHT22;701;52.526;13.408;2023-02-11T00:41:13;5.10;25.40
1413;DHT22;701;52.526;13.408;2023-02-11T00:43:40;5.10;24.70
1413;DHT22;701;52.526;13.408;2023-02-11T00:46:07;5.20;24.60
1413;DHT22;701;52.526;13.408;2023-02-11T00:48:33;5.30;24.50
1413;DHT22;701;52.526;13.408;2023-02-11T00:51:00;5.30;24.30
1413;DHT22;701;52.526;13.408;2023-02-11T00:53:26;5.40;24.30
1413;DHT22;701;52.526;13.408;2023-02-11T00:55:52;5.50;24.30
1413;DHT22;701;52.526;13.408;2023-02-11T00:58:18;5.50;24.10
1413;DHT22;701;52.526;13.408;2023-02-11T01:00:45;5.50;24.20
1413;DHT22;701;52.526;13.408;2023-02-11T01:03:12;5.60;24.00
1413;DHT22;701;52.526;13.408;2023-02-11T01:05:38;5.60;23.90
1413;DHT22;701;52.526;13.408;2023-02-11T01:08:04;5.70;23.80
1413;DHT22;701;52.526;13.408;2023-02-11T01:10:30;5.70;23.90
1413;DHT22;701;52.526;13.408;2023-02-11T01:12:56;5.70;23.70
1413;DHT22;701;52.526;13.408;2023-02-11T01:15:24;5.70;23.80
1413;DHT22;701;52.526;13.408;2023-02-11T01:17:50;5.80;23.80
1413;DHT22;701;52.526;13.408;2023-02-11T01:20:23;5.80;23.80
1413;DHT22;701;52.526;13.408;2023-02-11T01:22:49;5.80;24.00
1413;DHT22;701;52.526;13.408;2023-02-11T01:25:15;5.80;24.30
1413;DHT22;701;52.526;13.408;2023-02-11T01:27:41;5.80;24.60
1413;DHT22;701;52.526;13.408;2023-02-11T01:30:09;5.80;24.60
1413;DHT22;701;52.526;13.408;2023-02-11T01:32:35;5.80;25.10
1413;DHT22;701;52.526;13.408;2023-02-11T01:35:01;5.80;24.50
1413;DHT22;701;52.526;13.408;2023-02-11T01:37:27;5.80;24.40
1413;DHT22;701;52.526;13.408;2023-02-11T01:39:52;5.90;24.30
1413;DHT22;701;52.526;13.408;2023-02-11T01:42:19;5.90;24.20
1413;DHT22;701;52.526;13.408;2023-02-11T01:44:49;5.90;24.10
1413;DHT22;701;52.526;13.408;2023-02-11T01:47:16;5.90;24.00
1413;DHT22;701;52.526;13.408;2023-02-11T01:49:54;5.90;24.00
1413;DHT22;701;52.526;13.408;2023-02-11T01:52:31;5.90;23.90
1413;DHT22;701;52.526;13.408;2023-02-11T01:55:01;5.90;23.80
1413;DHT22;701;52.526;13.408;2023-02-11T01:57:51;6.00;23.90
1413;DHT22;701;52.526;13.408;2023-02-11T02:08:16;6.00;24.30
1413;DHT22;701;52.526;13.408;2023-02-11T02:10:46;6.00;23.90
1413;DHT22;701;52.526;13.408;2023-02-11T02:13:15;6.00;24.00
1413;DHT22;701;52.526;13.408;2023-02-11T02:16:06;6.10;24.10
1413;DHT22;701;52.526;13.408;2023-02-11T02:28:05;6.20;24.30
1413;DHT22;701;52.526;13.408;2023-02-11T02:36:04;6.20;24.30
1413;DHT22;701;52.526;13.408;2023-02-11T02:41:06;6.20;24.40
1413;DHT22;701;52.526;13.408;2023-02-11T02:43:33;6.20;24.60
1413;DHT22;701;52.526;13.408;2023-02-11T02:46:16;6.30;24.70
1413;DHT22;701;52.526;13.408;2023-02-11T02:48:44;6.30;24.80
1413;DHT22;701;52.526;13.408;2023-02-11T03:02:39;6.40;25.00
1413;DHT22;701;52.526;13.408;2023-02-11T03:07:59;6.40;25.00
1413;DHT22;701;52.526;13.408;2023-02-11T03:10:37;6.40;25.10
1413;DHT22;701;52.526;13.408;2023-02-11T03:13:05;6.40;25.10
1413;DHT22;701;52.526;13.408;2023-02-11T03:15:37;6.40;25.10
1413;DHT22;701;52.526;13.408;2023-02-11T03:18:05;6.50;25.20
1413;DHT22;701;52.526;13.408;2023-02-11T03:20:35;6.50;25.40
1413;DHT22;701;52.526;13.408;2023-02-11T03:23:10;6.50;25.30
1413;DHT22;701;52.526;13.408;2023-02-11T03:25:41;6.50;25.30
1413;DHT22;701;52.526;13.408;2023-02-11T03:28:31;6.50;25.50
1413;DHT22;701;52.526;13.408;2023-02-11T03:31:19;6.50;25.70
1413;DHT22;701;52.526;13.408;2023-02-11T03:34:05;6.50;26.40
1413;DHT22;701;52.526;13.408;2023-02-11T03:36:48;6.50;25.80
1413;DHT22;701;52.526;13.408;2023-02-11T03:39:34;6.50;26.00
1413;DHT22;701;52.526;13.408;2023-02-11T03:42:02;6.50;26.10
1413;DHT22;701;52.526;13.408;2023-02-11T03:44:34;6.50;25.90
1413;DHT22;701;52.526;13.408;2023-02-11T03:47:02;6.50;26.10
1413;DHT22;701;52.526;13.408;2023-02-11T03:49:31;6.50;26.70
1413;DHT22;701;52.526;13.408;2023-02-11T03:52:00;6.50;26.10
1413;DHT22;701;52.526;13.408;2023-02-11T03:54:29;6.50;26.10
1413;DHT22;701;52.526;13.408;2023-02-11T03:56:58;6.50;26.10
1413;DHT22;701;52.526;13.408;2023-02-11T03:59:25;6.50;26.40
1413;DHT22;701;52.526;13.408;2023-02-11T04:01:52;6.50;26.50
1413;DHT22;701;52.526;13.408;2023-02-11T04:04:18;6.50;26.50
1413;DHT22;701;52.526;13.408;2023-02-11T04:06:43;6.60;26.50
1413;DHT22;701;52.526;13.408;2023-02-11T04:09:09;6.60;26.60
1413;DHT22;701;52.526;13.408;2023-02-11T04:11:35;6.60;26.50
1413;DHT22;701;52.526;13.408;2023-02-11T04:14:01;6.60;26.50
1413;DHT22;701;52.526;13.408;2023-02-11T04:16:27;6.60;26.70
1413;DHT22;701;52.526;13.408;2023-02-11T04:18:56;6.60;26.70
1413;DHT22;701;52.526;13.408;2023-02-11T04:21:22;6.70;27.00
1413;DHT22;701;52.526;13.408;2023-02-11T04:23:48;6.70;26.90
1413;DHT22;701;52.526;13.408;2023-02-11T04:26:13;6.70;27.10
1413;DHT22;701;52.526;13.408;2023-02-11T04:28:39;6.70;27.20
1413;DHT22;701;52.526;13.408;2023-02-11T04:31:05;6.70;27.20
1413;DHT22;701;52.526;13.408;2023-02-11T04:33:31;6.70;27.20
1413;DHT22;701;52.526;13.408;2023-02-11T04:35:56;6.70;27.30
1413;DHT22;701;52.526;13.408;2023-02-11T04:38:22;6.70;27.40
1413;DHT22;701;52.526;13.408;2023-02-11T04:40:51;6.70;27.70
1413;DHT22;701;52.526;13.408;2023-02-11T04:43:17;6.70;27.80
1413;DHT22;701;52.526;13.408;2023-02-11T04:45:42;6.70;28.50
1413;DHT22;701;52.526;13.408;2023-02-11T04:48:08;6.70;28.30
1413;DHT22;701;52.526;13.408;2023-02-11T04:50:34;6.70;28.60
1413;DHT22;701;52.526;13.408;2023-02-11T04:52:59;6.70;28.70
1413;DHT22;701;52.526;13.408;2023-02-11T04:55:25;6.70;29.00
1413;DHT22;701;52.526;13.408;2023-02-11T04:57:51;6.70;29.20
1413;DHT22;701;52.526;13.408;2023-02-11T05:00:17;6.70;29.70
1413;DHT22;701;52.526;13.408;2023-02-11T05:02:43;6.70;29.70
1413;DHT22;701;52.526;13.408;2023-02-11T05:05:08;6.70;29.70
1413;DHT22;701;52.526;13.408;2023-02-11T05:07:34;6.70;29.70
1413;DHT22;701;52.526;13.408;2023-02-11T05:10:00;6.70;29.70
1413;DHT22;701;52.526;13.408;2023-02-11T05:12:26;6.70;29.70
1413;DHT22;701;52.526;13.408;2023-02-11T05:14:51;6.70;29.70
1413;DHT22;701;52.526;13.408;2023-02-11T05:17:17;6.70;29.70
1413;DHT22;701;52.526;13.408;2023-02-11T05:19:43;6.80;30.00
1413;DHT22;701;52.526;13.408;2023-02-11T05:22:09;6.80;30.30
1413;DHT22;701;52.526;13.408;2023-02-11T05:24:35;6.70;30.30
1413;DHT22;701;52.526;13.408;2023-02-11T05:27:01;6.70;30.80
1413;DHT22;701;52.526;13.408;2023-02-11T05:29:27;6.80;30.30
1413;DHT22;701;52.526;13.408;2023-02-11T05:31:53;6.80;30.40
1413;DHT22;701;52.526;13.408;2023-02-11T05:34:18;6.70;30.60
1413;DHT22;701;52.526;13.408;2023-02-11T05:36:44;6.80;30.80
1413;DHT22;701;52.526;13.408;2023-02-11T05:39:10;6.80;31.00
1413;DHT22;701;52.526;13.408;2023-02-11T05:41:35;6.80;31.30
1413;DHT22;701;52.526;13.408;2023-02-11T05:44:02;6.80;31.30
1413;DHT22;701;52.526;13.408;2023-02-11T05:46:28;6.80;31.40
1413;DHT22;701;52.526;13.408;2023-02-11T05:48:54;6.80;31.50
1413;DHT22;701;52.526;13.408;2023-02-11T05:51:21;6.80;31.60
1413;DHT22;701;52.526;13.408;2023-02-11T05:53:47;6.80;32.10
1413;DHT22;701;52.526;13.408;2023-02-11T05:56:12;6.80;32.70
1413;DHT22;701;52.526;13.408;2023-02-11T05:58:39;6.80;32.90
1413;DHT22;701;52.526;13.408;2023-02-11T06:01:05;6.80;33.10
1413;DHT22;701;52.526;13.408;2023-02-11T06:03:31;6.80;33.60
1413;DHT22;701;52.526;13.408;2023-02-11T06:05:56;6.80;34.00
1413;DHT22;701;52.526;13.408;2023-02-11T06:08:22;6.80;34.00
1413;DHT22;701;52.526;13.408;2023-02-11T06:10:48;6.80;34.10
1413;DHT22;701;52.526;13.408;2023-02-11T06:13:13;6.80;34.10
1413;DHT22;701;52.526;13.408;2023-02-11T06:15:39;6.80;34.00
1413;DHT22;701;52.526;13.408;2023-02-11T06:18:06;6.80;34.70
1413;DHT22;701;52.526;13.408;2023-02-11T06:20:31;6.90;34.70
1413;DHT22;701;52.526;13.408;2023-02-11T06:22:57;6.80;34.60
1413;DHT22;701;52.526;13.408;2023-02-11T06:25:23;6.90;35.00
1413;DHT22;701;52.526;13.408;2023-02-11T06:27:49;6.90;35.30
1413;DHT22;701;52.526;13.408;2023-02-11T06:30:14;6.90;35.30
1413;DHT22;701;52.526;13.408;2023-02-11T06:32:40;6.90;35.70
1413;DHT22;701;52.526;13.408;2023-02-11T06:35:06;6.90;35.90
1413;DHT22;701;52.526;13.408;2023-02-11T06:37:33;6.90;36.10
1413;DHT22;701;52.526;13.408;2023-02-11T06:39:59;6.90;36.20
1413;DHT22;701;52.526;13.408;2023-02-11T06:42:25;6.90;36.80
1413;DHT22;701;52.526;13.408;2023-02-11T06:44:51;6.90;37.10
1413;DHT22;701;52.526;13.408;2023-02-11T06:47:16;6.90;37.20
1413;DHT22;701;52.526;13.408;2023-02-11T06:49:42;7.00;37.40
1413;DHT22;701;52.526;13.408;2023-02-11T06:52:08;7.00;38.20
1413;DHT22;701;52.526;13.408;2023-02-11T06:54:34;7.00;37.80
1413;DHT22;701;52.526;13.408;2023-02-11T06:56:59;7.00;37.60
1413;DHT22;701;52.526;13.408;2023-02-11T06:59:25;7.10;37.60
1413;DHT22;701;52.526;13.408;2023-02-11T07:01:51;7.10;37.90
1413;DHT22;701;52.526;13.408;2023-02-11T07:04:16;7.10;38.20
1413;DHT22;701;52.526;13.408;2023-02-11T07:06:42;7.10;37.80
1413;DHT22;701;52.526;13.408;2023-02-11T07:09:08;7.20;37.90
1413;DHT22;701;52.526;13.408;2023-02-11T07:11:34;7.20;38.60
1413;DHT22;701;52.526;13.408;2023-02-11T07:14:05;7.20;38.70
1413;DHT22;701;52.526;13.408;2023-02-11T07:16:33;7.20;38.20
1413;DHT22;701;52.526;13.408;2023-02-11T07:18:59;7.20;38.20
1413;DHT22;701;52.526;13.408;2023-02-11T07:21:26;7.30;38.00
1413;DHT22;701;52.526;13.408;2023-02-11T07:23:52;7.30;38.40
1413;DHT22;701;52.526;13.408;2023-02-11T07:26:20;7.30;38.60
1413;DHT22;701;52.526;13.408;2023-02-11T07:28:48;7.30;38.20
1413;DHT22;701;52.526;13.408;2023-02-11T07:31:19;7.40;38.20
1413;DHT22;701;52.526;13.408;2023-02-11T07:33:45;7.40;38.30
1413;DHT22;701;52.526;13.408;2023-02-11T07:36:13;7.40;38.10
1413;DHT22;701;52.526;13.408;2023-02-11T07:38:39;7.40;37.90
1413;DHT22;701;52.526;13.408;2023-02-11T07:41:07;7.50;37.70
1413;DHT22;701;52.526;13.408;2023-02-11T07:43:34;7.50;37.50
1413;DHT22;701;52.526;13.408;2023-02-11T07:46:05;7.60;37.40
1413;DHT22;701;52.526;13.408;2023-02-11T07:48:31;7.60;37.10
1413;DHT22;701;52.526;13.408;2023-02-11T07:51:11;7.70;37.10
1413;DHT22;701;52.526;13.408;2023-02-11T07:53:37;7.70;36.80
1413;DHT22;701;52.526;13.408;2023-02-11T07:56:04;7.70;36.60
1413;DHT22;701;52.526;13.408;2023-02-11T07:58:31;7.80;36.50
1413;DHT22;701;52.526;13.408;2023-02-11T08:01:05;7.80;36.40
1413;DHT22;701;52.526;13.408;2023-02-11T08:03:31;7.80;36.20
1413;DHT22;701;52.526;13.408;2023-02-11T08:05:57;7.80;36.20
1413;DHT22;701;52.526;13.408;2023-02-11T08:08:26;7.80;36.20
1413;DHT22;701;52.526;13.408;2023-02-11T08:10:52;7.80;36.70
1413;DHT22;701;52.526;13.408;2023-02-11T08:13:18;7.80;35.90
1413;DHT22;701;52.526;13.408;2023-02-11T08:15:44;7.80;35.90
1413;DHT22;701;52.526;13.408;2023-02-11T08:18:09;7.80;36.20
1413;DHT22;701;52.526;13.408;2023-02-11T08:20:35;7.80;36.60
1413;DHT22;701;52.526;13.408;2023-02-11T08:23:01;7.90;36.80
1413;DHT22;701;52.526;13.408;2023-02-11T08:25:27;7.90;36.70
1413;DHT22;701;52.526;13.408;2023-02-11T08:27:53;7.90;36.80
1413;DHT22;701;52.526;13.408;2023-02-11T08:30:19;8.00;36.80
1413;DHT22;701;52.526;13.408;2023-02-11T08:32:44;8.00;36.80
1413;DHT22;701;52.526;13.408;2023-02-11T08:35:11;8.00;36.90
1413;DHT22;701;52.526;13.408;2023-02-11T08:37:37;8.00;37.20
1413;DHT22;701;52.526;13.408;2023-02-11T08:40:03;8.00;37.40
1413;DHT22;701;52.526;13.408;2023-02-11T08:42:29;8.10;37.70
1413;DHT22;701;52.526;13.408;2023-02-11T08:44:55;8.10;38.00
1413;DHT22;701;52.526;13.408;2023-02-11T08:47:21;8.10;38.00
1413;DHT22;701;52.526;13.408;2023-02-11T08:49:46;8.10;37.90
1413;DHT22;701;52.526;13.408;2023-02-11T08:52:12;8.10;37.80
1413;DHT22;701;52.526;13.408;2023-02-11T08:54:38;8.10;38.00
1413;DHT22;701;52.526;13.408;2023-02-11T08:57:04;8.10;37.60
1413;DHT22;701;52.526;13.408;2023-02-11T08:59:30;8.10;37.60
1413;DHT22;701;52.526;13.408;2023-02-11T09:01:56;8.10;37.60
1413;DHT22;701;52.526;13.408;2023-02-11T09:04:23;8.10;37.60
1413;DHT22;701;52.526;13.408;2023-02-11T09:06:49;8.10;37.60
1413;DHT22;701;52.526;13.408;2023-02-11T09:09:15;8.10;37.70
1413;DHT22;701;52.526;13.408;2023-02-11T09:11:43;8.20;37.50
1413;DHT22;701;52.526;13.408;2023-02-11T09:14:16;8.20;37.70
1413;DHT22;701;52.526;13.408;2023-02-11T09:16:43;8.20;37.70
1413;DHT22;701;52.526;13.408;2023-02-11T09:19:09;8.20;37.80
1413;DHT22;701;52.526;13.408;2023-02-11T09:21:35;8.20;37.80
1413;DHT22;701;52.526;13.408;2023-02-11T09:24:00;8.20;37.70
1413;DHT22;701;52.526;13.408;2023-02-11T09:26:31;8.30;37.80
1413;DHT22;701;52.526;13.408;2023-02-11T09:28:58;8.30;37.90
1413;DHT22;701;52.526;13.408;2023-02-11T09:31:25;8.30;37.60
1413;DHT22;701;52.526;13.408;2023-02-11T09:33:54;8.30;37.50
1413;DHT22;701;52.526;13.408;2023-02-11T09:36:25;8.40;37.60
1413;DHT22;701;52.526;13.408;2023-02-11T09:38:51;8.40;37.70
1413;DHT22;701;52.526;13.408;2023-02-11T09:44:00;8.30;37.80
1413;DHT22;701;52.526;13.408;2023-02-11T09:46:32;8.40;38.00
1413;DHT22;701;52.526;13.408;2023-02-11T09:48:59;8.40;38.10
1413;DHT22;701;52.526;13.408;2023-02-11T09:51:50;8.40;38.00
1413;DHT22;701;52.526;13.408;2023-02-11T09:54:53;8.50;38.50
1413;DHT22;701;52.526;13.408;2023-02-11T09:57:20;8.50;38.60
1413;DHT22;701;52.526;13.408;2023-02-11T09:59:46;8.50;38.90
1413;DHT22;701;52.526;13.408;2023-02-11T10:02:26;8.50;39.00
1413;DHT22;701;52.526;13.408;2023-02-11T10:05:32;8.60;38.80
1413;DHT22;701;52.526;13.408;2023-02-11T10:11:01;8.60;38.70
1413;DHT22;701;52.526;13.408;2023-02-11T10:21:52;8.60;39.90
1413;DHT22;701;52.526;13.408;2023-02-11T10:24:23;8.60;39.90
1413;DHT22;701;52.526;13.408;2023-02-11T10:26:50;8.60;40.40
1413;DHT22;701;52.526;13.408;2023-02-11T10:29:30;8.60;40.90
1413;DHT22;701;52.526;13.408;2023-02-11T10:32:00;8.50;41.20
1413;DHT22;701;52.526;13.408;2023-02-11T10:34:28;8.50;41.30
1413;DHT22;701;52.526;13.408;2023-02-11T10:36:54;8.50;41.40
1413;DHT22;701;52.526;13.408;2023-02-11T10:39:22;8.60;41.60
1413;DHT22;701;52.526;13.408;2023-02-11T10:41:51;8.50;41.90
1413;DHT22;701;52.526;13.408;2023-02-11T10:46:48;8.60;42.00
1413;DHT22;701;52.526;13.408;2023-02-11T10:49:42;8.60;42.20
1413;DHT22;701;52.526;13.408;2023-02-11T10:52:25;8.60;42.60
1413;DHT22;701;52.526;13.408;2023-02-11T10:55:12;8.60;42.90
1413;DHT22;701;52.526;13.408;2023-02-11T10:57:53;8.60;42.80
1413;DHT22;701;52.526;13.408;2023-02-11T11:02:57;8.60;43.30
1413;DHT22;701;52.526;13.408;2023-02-11T11:05:35;8.70;43.50
1413;DHT22;701;52.526;13.408;2023-02-11T11:08:06;8.70;43.20
1413;DHT22;701;52.526;13.408;2023-02-11T11:10:46;8.70;43.70
1413;DHT22;701;52.526;13.408;2023-02-11T11:18:39;8.70;44.20
1413;DHT22;701;52.526;13.408;2023-02-11T11:26:52;8.70;45.40
1413;DHT22;701;52.526;13.408;2023-02-11T11:29:37;8.70;45.50
1413;DHT22;701;52.526;13.408;2023-02-11T11:32:22;8.70;45.70
1413;DHT22;701;52.526;13.408;2023-02-11T11:34:54;8.70;45.80
1413;DHT22;701;52.526;13.408;2023-02-11T11:37:29;8.70;46.10
1413;DHT22;701;52.526;13.408;2023-02-11T11:40:23;8.70;46.50
1413;DHT22;701;52.526;13.408;2023-02-11T11:45:38;8.60;46.60
1413;DHT22;701;52.526;13.408;2023-02-11T11:48:27;8.60;46.50
1413;DHT22;701;52.526;13.408;2023-02-11T11:51:01;8.70;46.10
1413;DHT22;701;52.526;13.408;2023-02-11T11:53:36;8.70;46.00
1413;DHT22;701;52.526;13.408;2023-02-11T11:56:13;8.80;45.90
1413;DHT22;701;52.526;13.408;2023-02-11T11:58:40;8.80;45.60
1413;DHT22;701;52.526;13.408;2023-02-11T12:17:22;9.10;44.00
1413;DHT22;701;52.526;13.408;2023-02-11T12:26:13;9.20;43.40
1413;DHT22;701;52.526;13.408;2023-02-11T12:28:49;9.20;43.40
1413;DHT22;701;52.526;13.408;2023-02-11T12:45:29;9.40;42.90
1413;DHT22;701;52.526;13.408;2023-02-11T12:55:59;9.40;42.60
1413;DHT22;701;52.526;13.408;2023-02-11T12:58:31;9.50;42.70
1413;DHT22;701;52.526;13.408;2023-02-11T13:01:16;9.50;42.60
1413;DHT22;701;52.526;13.408;2023-02-11T13:06:17;9.50;43.10
1413;DHT22;701;52.526;13.408;2023-02-11T13:09:34;9.50;43.20
1413;DHT22;701;52.526;13.408;2023-02-11T13:11:45;9.50;43.20
1413;DHT22;701;52.526;13.408;2023-02-11T13:14:29;9.50;43.40
1413;DHT22;701;52.526;13.408;2023-02-11T13:16:57;9.50;44.40
1413;DHT22;701;52.526;13.408;2023-02-11T13:30:33;9.30;46.20
1413;DHT22;701;52.526;13.408;2023-02-11T13:33:19;9.30;46.20
1413;DHT22;701;52.526;13.408;2023-02-11T13:38:34;9.30;46.40
1413;DHT22;701;52.526;13.408;2023-02-11T13:41:03;9.30;46.30
1413;DHT22;701;52.526;13.408;2023-02-11T13:43:34;9.30;45.90
1413;DHT22;701;52.526;13.408;2023-02-11T13:46:11;9.30;46.40
1413;DHT22;701;52.526;13.408;2023-02-11T13:48:45;9.30;46.80
1413;DHT22;701;52.526;13.408;2023-02-11T13:51:14;9.30;47.00
1413;DHT22;701;52.526;13.408;2023-02-11T13:53:55;9.30;46.70
1413;DHT22;701;52.526;13.408;2023-02-11T13:56:32;9.30;46.70
1413;DHT22;701;52.526;13.408;2023-02-11T13:59:00;9.40;46.60
1413;DHT22;701;52.526;13.408;2023-02-11T14:04:36;9.30;46.30
1413;DHT22;701;52.526;13.408;2023-02-11T14:07:31;9.30;46.90
1413;DHT22;701;52.526;13.408;2023-02-11T14:13:23;9.30;47.70
1413;DHT22;701;52.526;13.408;2023-02-11T14:23:39;9.40;47.60
1413;DHT22;701;52.526;13.408;2023-02-11T14:29:16;9.30;48.30
1413;DHT22;701;52.526;13.408;2023-02-11T14:32:18;9.40;49.10
1413;DHT22;701;52.526;13.408;2023-02-11T14:35:11;9.30;50.20
1413;DHT22;701;52.526;13.408;2023-02-11T14:43:11;9.10;51.90
1413;DHT22;701;52.526;13.408;2023-02-11T14:45:38;9.10;53.00
1413;DHT22;701;52.526;13.408;2023-02-11T14:48:13;9.10;53.00
1413;DHT22;701;52.526;13.408;2023-02-11T14:50:44;9.10;52.70
1413;DHT22;701;52.526;13.408;2023-02-11T14:53:16;9.10;53.00
1413;DHT22;701;52.526;13.408;2023-02-11T14:55:46;9.10;53.00
1413;DHT22;701;52.526;13.408;2023-02-11T14:58:20;9.00;52.90
1413;DHT22;701;52.526;13.408;2023-02-11T15:01:01;9.00;52.90
1413;DHT22;701;52.526;13.408;2023-02-11T15:03:41;9.00;54.30
1413;DHT22;701;52.526;13.408;2023-02-11T15:08:58;9.00;54.90
1413;DHT22;701;52.526;13.408;2023-02-11T15:11:27;9.00;54.80
1413;DHT22;701;52.526;13.408;2023-02-11T15:14:07;9.00;54.70
1413;DHT22;701;52.526;13.408;2023-02-11T15:16:33;9.00;54.60
1413;DHT22;701;52.526;13.408;2023-02-11T15:19:05;9.00;55.20
1413;DHT22;701;52.526;13.408;2023-02-11T15:21:33;9.00;55.10
1413;DHT22;701;52.526;13.408;2023-02-11T15:24:17;9.00;55.00
1413;DHT22;701;52.526;13.408;2023-02-11T15:26:54;9.00;54.90
1413;DHT22;701;52.526;13.408;2023-02-11T15:29:23;9.00;55.00
1413;DHT22;701;52.526;13.408;2023-02-11T15:32:06;9.00;55.00
1413;DHT22;701;52.526;13.408;2023-02-11T15:34:36;9.00;55.40
1413;DHT22;701;52.526;13.408;2023-02-11T15:37:04;9.00;56.10
1413;DHT22;701;52.526;13.408;2023-02-11T15:39:35;9.00;55.40
1413;DHT22;701;52.526;13.408;2023-02-11T15:42:22;9.00;55.50
1413;DHT22;701;52.526;13.408;2023-02-11T15:44:49;8.90;55.90
1413;DHT22;701;52.526;13.408;2023-02-11T15:47:32;9.00;55.60
1413;DHT22;701;52.526;13.408;2023-02-11T15:49:58;9.00;55.50
1413;DHT22;701;52.526;13.408;2023-02-11T15:52:25;8.90;55.70
1413;DHT22;701;52.526;13.408;2023-02-11T15:54:52;8.90;56.50
1413;DHT22;701;52.526;13.408;2023-02-11T15:57:20;8.90;56.60
1413;DHT22;701;52.526;13.408;2023-02-11T15:59:49;8.90;56.90
1413;DHT22;701;52.526;13.408;2023-02-11T16:02:32;8.90;57.50
1413;DHT22;701;52.526;13.408;2023-02-11T16:05:02;8.90;58.00
1413;DHT22;701;52.526;13.408;2023-02-11T16:07:49;8.90;58.60
1413;DHT22;701;52.526;13.408;2023-02-11T16:10:17;8.90;58.50
1413;DHT22;701;52.526;13.408;2023-02-11T16:12:55;8.80;58.20
1413;DHT22;701;52.526;13.408;2023-02-11T16:18:02;8.80;59.20
1413;DHT22;701;52.526;13.408;2023-02-11T16:20:30;8.80;59.00
1413;DHT22;701;52.526;13.408;2023-02-11T16:22:55;8.80;59.30
1413;DHT22;701;52.526;13.408;2023-02-11T16:25:22;8.80;59.70
1413;DHT22;701;52.526;13.408;2023-02-11T16:27:50;8.80;60.30
1413;DHT22;701;52.526;13.408;2023-02-11T16:30:27;8.80;60.10
1413;DHT22;701;52.526;13.408;2023-02-11T16:32:56;8.80;60.10
1413;DHT22;701;52.526;13.408;2023-02-11T16:35:22;8.80;60.00
1413;DHT22;701;52.526;13.408;2023-02-11T16:37:47;8.90;60.00
1413;DHT22;701;52.526;13.408;2023-02-11T16:40:13;8.90;60.00
1413;DHT22;701;52.526;13.408;2023-02-11T16:42:39;8.90;59.60
1413;DHT22;701;52.526;13.408;2023-02-11T16:45:05;8.90;59.30
1413;DHT22;701;52.526;13.408;2023-02-11T16:47:33;8.90;59.10
1413;DHT22;701;52.526;13.408;2023-02-11T16:49:59;8.90;58.90
1413;DHT22;701;52.526;13.408;2023-02-11T16:52:25;8.90;59.00
1413;DHT22;701;52.526;13.408;2023-02-11T16:54:51;8.90;58.90
1413;DHT22;701;52.526;13.408;2023-02-11T16:57:20;9.00;58.50
1413;DHT22;701;52.526;13.408;2023-02-11T16:59:46;8.90;58.30
1413;DHT22;701;52.526;13.408;2023-02-11T17:02:19;8.90;58.10
1413;DHT22;701;52.526;13.408;2023-02-11T17:04:47;8.90;58.10
1413;DHT22;701;52.526;13.408;2023-02-11T17:07:13;8.90;58.20
1413;DHT22;701;52.526;13.408;2023-02-11T17:09:38;8.90;58.00
1413;DHT22;701;52.526;13.408;2023-02-11T17:12:05;8.90;58.10
1413;DHT22;701;52.526;13.408;2023-02-11T17:14:30;8.90;58.50
1413;DHT22;701;52.526;13.408;2023-02-11T17:16:56;9.00;58.40
1413;DHT22;701;52.526;13.408;2023-02-11T17:19:22;8.90;58.30
1413;DHT22;701;52.526;13.408;2023-02-11T17:21:50;8.90;58.10
1413;DHT22;701;52.526;13.408;2023-02-11T17:24:17;9.00;58.40
1413;DHT22;701;52.526;13.408;2023-02-11T17:26:43;8.90;58.10
1413;DHT22;701;52.526;13.408;2023-02-11T17:29:12;9.00;58.00
1413;DHT22;701;52.526;13.408;2023-02-11T17:31:38;9.00;57.60
1413;DHT22;701;52.526;13.408;2023-02-11T17:34:04;9.00;57.00
1413;DHT22;701;52.526;13.408;2023-02-11T17:36:30;9.00;57.00
1413;DHT22;701;52.526;13.408;2023-02-11T17:38:58;9.00;57.00
1413;DHT22;701;52.526;13.408;2023-02-11T17:41:25;9.00;57.00
1413;DHT22;701;52.526;13.408;2023-02-11T17:43:51;9.10;57.10
1413;DHT22;701;52.526;13.408;2023-02-11T17:46:17;9.10;56.40
1413;DHT22;701;52.526;13.408;2023-02-11T17:48:43;9.10;56.20
1413;DHT22;701;52.526;13.408;2023-02-11T17:53:58;9.10;56.10
1413;DHT22;701;52.526;13.408;2023-02-11T17:56:24;9.10;56.10
1413;DHT22;701;52.526;13.408;2023-02-11T17:58:50;9.10;56.00
1413;DHT22;701;52.526;13.408;2023-02-11T18:01:17;9.10;56.20
1413;DHT22;701;52.526;13.408;2023-02-11T18:03:43;9.10;55.90
1413;DHT22;701;52.526;13.408;2023-02-11T18:06:10;9.10;55.80
1413;DHT22;701;52.526;13.408;2023-02-11T18:08:36;9.10;55.50
1413;DHT22;701;52.526;13.408;2023-02-11T18:11:02;9.10;55.60
1413;DHT22;701;52.526;13.408;2023-02-11T18:13:28;9.10;55.50
1413;DHT22;701;52.526;13.408;2023-02-11T18:15:54;9.10;55.40
1413;DHT22;701;52.526;13.408;2023-02-11T18:18:20;9.10;55.00
1413;DHT22;701;52.526;13.408;2023-02-11T18:20:58;9.20;54.70
1413;DHT22;701;52.526;13.408;2023-02-11T18:23:24;9.20;54.50
1413;DHT22;701;52.526;13.408;2023-02-11T18:25:50;9.20;54.30
1413;DHT22;701;52.526;13.408;2023-02-11T18:28:16;9.20;54.30
1413;DHT22;701;52.526;13.408;2023-02-11T18:30:42;9.20;54.00
1413;DHT22;701;52.526;13.408;2023-02-11T18:33:08;9.30;53.50
1413;DHT22;701;52.526;13.408;2023-02-11T18:35:40;9.30;53.60
1413;DHT22;701;52.526;13.408;2023-02-11T18:38:07;9.30;53.10
1413;DHT22;701;52.526;13.408;2023-02-11T18:40:34;9.30;53.10
1413;DHT22;701;52.526;13.408;2023-02-11T18:43:03;9.30;53.10
1413;DHT22;701;52.526;13.408;2023-02-11T18:45:28;9.30;53.10
1413;DHT22;701;52.526;13.408;2023-02-11T18:47:55;9.30;52.70
1413;DHT22;701;52.526;13.408;2023-02-11T18:50:21;9.30;52.70
1413;DHT22;701;52.526;13.408;2023-02-11T18:52:48;9.30;52.70
1413;DHT22;701;52.526;13.408;2023-02-11T18:55:14;9.30;52.30
1413;DHT22;701;52.526;13.408;2023-02-11T18:57:40;9.40;52.40
1413;DHT22;701;52.526;13.408;2023-02-11T19:00:08;9.30;52.10
1413;DHT22;701;52.526;13.408;2023-02-11T19:02:34;9.30;52.00
1413;DHT22;701;52.526;13.408;2023-02-11T19:05:02;9.30;51.90
1413;DHT22;701;52.526;13.408;2023-02-11T19:07:30;9.30;51.80
1413;DHT22;701;52.526;13.408;2023-02-11T19:09:57;9.30;51.70
1413;DHT22;701;52.526;13.408;2023-02-11T19:12:23;9.30;51.80
1413;DHT22;701;52.526;13.408;2023-02-11T19:14:49;9.30;51.60
1413;DHT22;701;52.526;13.408;2023-02-11T19:17:15;9.30;51.60